sensor_id;sensor_type;location;lat;lon;timestamp;pressure;altitude;pressure_sealevel;temperature
13497;BMP180;6820;49.374;8.452;2022-07-17T00:00:40;101398.56;;;26.65
13497;BMP180;6820;49.374;8.452;2022-07-17T00:04:43;101401.91;;;26.60
13497;BMP180;6820;49.374;8.452;2022-07-17T00:08:45;101399.25;;;26.54
13497;BMP180;6820;49.374;8.452;2022-07-17T00:12:47;101394.00;;;26.50
13497;BMP180;6820;49.374;8.452;2022-07-17T00:16:49;101389.50;;;26.37
13497;BMP180;6820;49.374;8.452;2022-07-17T00:20:51;101388.44;;;26.23
13497;BMP180;6820;49.374;8.452;2022-07-17T00:24:53;101389.25;;;26.21
13497;BMP180;6820;49.374;8.452;2022-07-17T00:28:55;101386.47;;;26.12
13497;BMP180;6820;49.374;8.452;2022-07-17T00:32:56;101383.66;;;25.97
13497;BMP180;6820;49.374;8.452;2022-07-17T00:36:58;101388.44;;;25.72
13497;BMP180;6820;49.374;8.452;2022-07-17T00:40:59;101396.19;;;25.69
13497;BMP180;6820;49.374;8.452;2022-07-17T00:45:01;101397.22;;;25.78
13497;BMP180;6820;49.374;8.452;2022-07-17T00:49:05;101388.63;;;25.82
13497;BMP180;6820;49.374;8.452;2022-07-17T00:53:08;101391.13;;;25.76
13497;BMP180;6820;49.374;8.452;2022-07-17T00:57:15;101395.47;;;25.76
13497;BMP180;6820;49.374;8.452;2022-07-17T01:01:17;101395.41;;;25.74
13497;BMP180;6820;49.374;8.452;2022-07-17T01:05:20;101389.41;;;25.75
13497;BMP180;6820;49.374;8.452;2022-07-17T01:09:23;101390.16;;;25.70
13497;BMP180;6820;49.374;8.452;2022-07-17T01:13:26;101383.94;;;25.61
13497;BMP180;6820;49.374;8.452;2022-07-17T01:17:28;101391.34;;;25.41
13497;BMP180;6820;49.374;8.452;2022-07-17T01:21:40;101392.16;;;25.38
13497;BMP180;6820;49.374;8.452;2022-07-17T01:25:43;101399.00;;;25.34
13497;BMP180;6820;49.374;8.452;2022-07-17T01:29:45;101395.44;;;25.28
13497;BMP180;6820;49.374;8.452;2022-07-17T01:33:47;101404.50;;;25.04
13497;BMP180;6820;49.374;8.452;2022-07-17T01:37:49;101403.59;;;25.02
13497;BMP180;6820;49.374;8.452;2022-07-17T01:41:51;101409.75;;;25.07
13497;BMP180;6820;49.374;8.452;2022-07-17T01:45:53;101405.97;;;24.91
13497;BMP180;6820;49.374;8.452;2022-07-17T01:49:56;101412.34;;;24.67
13497;BMP180;6820;49.374;8.452;2022-07-17T01:53:58;101413.19;;;24.66
13497;BMP180;6820;49.374;8.452;2022-07-17T01:58:00;101413.09;;;24.60
13497;BMP180;6820;49.374;8.452;2022-07-17T02:02:02;101402.72;;;24.62
13497;BMP180;6820;49.374;8.452;2022-07-17T02:06:04;101400.13;;;24.60
13497;BMP180;6820;49.374;8.452;2022-07-17T02:10:08;101400.03;;;24.57
13497;BMP180;6820;49.374;8.452;2022-07-17T02:14:10;101400.66;;;24.46
13497;BMP180;6820;49.374;8.452;2022-07-17T02:18:12;101396.19;;;24.39
13497;BMP180;6820;49.374;8.452;2022-07-17T02:22:13;101393.66;;;24.42
13497;BMP180;6820;49.374;8.452;2022-07-17T02:26:15;101392.00;;;24.46
13497;BMP180;6820;49.374;8.452;2022-07-17T02:30:17;101390.22;;;24.42
13497;BMP180;6820;49.374;8.452;2022-07-17T02:34:19;101395.28;;;24.39
13497;BMP180;6820;49.374;8.452;2022-07-17T02:38:21;101396.19;;;24.39
13497;BMP180;6820;49.374;8.452;2022-07-17T02:42:25;101396.09;;;24.36
13497;BMP180;6820;49.374;8.452;2022-07-17T02:46:27;101400.28;;;24.30
13497;BMP180;6820;49.374;8.452;2022-07-17T02:50:29;101397.53;;;24.22
13497;BMP180;6820;49.374;8.452;2022-07-17T02:54:31;101398.44;;;24.23
13497;BMP180;6820;49.374;8.452;2022-07-17T02:58:33;101392.31;;;24.21
13497;BMP180;6820;49.374;8.452;2022-07-17T03:02:34;101390.38;;;24.13
13497;BMP180;6820;49.374;8.452;2022-07-17T03:06:36;101391.19;;;24.12
13497;BMP180;6820;49.374;8.452;2022-07-17T03:10:37;101388.19;;;23.94
13497;BMP180;6820;49.374;8.452;2022-07-17T03:14:39;101394.25;;;23.94
13497;BMP180;6820;49.374;8.452;2022-07-17T03:18:41;101393.22;;;23.88
13497;BMP180;6820;49.374;8.452;2022-07-17T03:22:43;101395.72;;;23.84
13497;BMP180;6820;49.374;8.452;2022-07-17T03:26:44;101397.44;;;23.83
13497;BMP180;6820;49.374;8.452;2022-07-17T03:30:46;101396.47;;;23.80
13497;BMP180;6820;49.374;8.452;2022-07-17T03:34:48;101406.75;;;23.77
13497;BMP180;6820;49.374;8.452;2022-07-17T03:38:50;101406.69;;;23.74
13497;BMP180;6820;49.374;8.452;2022-07-17T03:42:51;101404.03;;;23.72
13497;BMP180;6820;49.374;8.452;2022-07-17T03:46:54;101406.63;;;23.71
13497;BMP180;6820;49.374;8.452;2022-07-17T03:50:56;101407.41;;;23.68
13497;BMP180;6820;49.374;8.452;2022-07-17T03:54:58;101406.56;;;23.69
13497;BMP180;6820;49.374;8.452;2022-07-17T03:58:59;101406.41;;;23.62
13497;BMP180;6820;49.374;8.452;2022-07-17T04:03:01;101414.66;;;23.49
13497;BMP180;6820;49.374;8.452;2022-07-17T04:07:02;101422.69;;;23.27
13497;BMP180;6820;49.374;8.452;2022-07-17T04:11:04;101417.88;;;23.10
13497;BMP180;6820;49.374;8.452;2022-07-17T04:15:11;101427.22;;;23.04
13497;BMP180;6820;49.374;8.452;2022-07-17T04:19:12;101431.78;;;22.83
13497;BMP180;6820;49.374;8.452;2022-07-17T04:23:14;101429.63;;;22.70
13497;BMP180;6820;49.374;8.452;2022-07-17T04:27:16;101431.19;;;22.65
13497;BMP180;6820;49.374;8.452;2022-07-17T04:31:18;101424.28;;;22.64
13497;BMP180;6820;49.374;8.452;2022-07-17T04:35:20;101424.84;;;22.55
13497;BMP180;6820;49.374;8.452;2022-07-17T04:39:22;101430.94;;;22.57
13497;BMP180;6820;49.374;8.452;2022-07-17T04:43:24;101422.31;;;22.56
13497;BMP180;6820;49.374;8.452;2022-07-17T04:47:26;101430.84;;;22.54
13497;BMP180;6820;49.374;8.452;2022-07-17T04:51:28;101430.16;;;22.59
13497;BMP180;6820;49.374;8.452;2022-07-17T04:55:30;101432.81;;;22.61
13497;BMP180;6820;49.374;8.452;2022-07-17T04:59:32;101434.53;;;22.61
13497;BMP180;6820;49.374;8.452;2022-07-17T05:03:34;101441.53;;;22.65
13497;BMP180;6820;49.374;8.452;2022-07-17T05:07:35;101445.09;;;22.69
13497;BMP180;6820;49.374;8.452;2022-07-17T05:11:37;101448.59;;;22.71
13497;BMP180;6820;49.374;8.452;2022-07-17T05:15:39;101455.63;;;22.75
13497;BMP180;6820;49.374;8.452;2022-07-17T05:19:41;101457.72;;;22.86
13497;BMP180;6820;49.374;8.452;2022-07-17T05:23:43;101463.81;;;22.88
13497;BMP180;6820;49.374;8.452;2022-07-17T05:27:44;101466.16;;;22.81
13497;BMP180;6820;49.374;8.452;2022-07-17T05:31:46;101470.81;;;22.92
13497;BMP180;6820;49.374;8.452;2022-07-17T05:35:48;101466.63;;;22.97
13497;BMP180;6820;49.374;8.452;2022-07-17T05:39:49;101473.06;;;23.09
13497;BMP180;6820;49.374;8.452;2022-07-17T05:43:51;101471.50;;;23.16
13497;BMP180;6820;49.374;8.452;2022-07-17T05:47:53;101475.94;;;23.20
13497;BMP180;6820;49.374;8.452;2022-07-17T05:51:54;101478.06;;;23.34
13497;BMP180;6820;49.374;8.452;2022-07-17T05:55:56;101476.69;;;23.46
13497;BMP180;6820;49.374;8.452;2022-07-17T05:59:58;101484.63;;;23.52
13497;BMP180;6820;49.374;8.452;2022-07-17T06:03:59;101480.56;;;23.61
13497;BMP180;6820;49.374;8.452;2022-07-17T06:08:01;101481.84;;;23.77
13497;BMP180;6820;49.374;8.452;2022-07-17T06:12:03;101474.47;;;23.93
13497;BMP180;6820;49.374;8.452;2022-07-17T06:16:05;101476.72;;;24.13
13497;BMP180;6820;49.374;8.452;2022-07-17T06:20:07;101486.59;;;24.26
13497;BMP180;6820;49.374;8.452;2022-07-17T06:24:09;101481.63;;;24.36
13497;BMP180;6820;49.374;8.452;2022-07-17T06:28:11;101483.63;;;24.47
13497;BMP180;6820;49.374;8.452;2022-07-17T06:32:12;101486.63;;;24.65
13497;BMP180;6820;49.374;8.452;2022-07-17T06:36:14;101488.69;;;24.79
13497;BMP180;6820;49.374;8.452;2022-07-17T06:40:16;101491.59;;;24.93
13497;BMP180;6820;49.374;8.452;2022-07-17T06:44:18;101482.38;;;25.07
13497;BMP180;6820;49.374;8.452;2022-07-17T06:48:20;101487.91;;;25.23
13497;BMP180;6820;49.374;8.452;2022-07-17T06:52:22;101489.09;;;25.38
13497;BMP180;6820;49.374;8.452;2022-07-17T06:56:31;101478.13;;;25.52
13497;BMP180;6820;49.374;8.452;2022-07-17T07:00:36;101487.91;;;25.67
13497;BMP180;6820;49.374;8.452;2022-07-17T07:04:46;101473.53;;;25.85
13497;BMP180;6820;49.374;8.452;2022-07-17T07:08:51;101479.81;;;25.99
13497;BMP180;6820;49.374;8.452;2022-07-17T07:12:58;101474.91;;;26.13
13497;BMP180;6820;49.374;8.452;2022-07-17T07:17:01;101484.69;;;26.31
13497;BMP180;6820;49.374;8.452;2022-07-17T07:21:03;101469.25;;;26.41
13497;BMP180;6820;49.374;8.452;2022-07-17T07:25:05;101473.78;;;26.52
13497;BMP180;6820;49.374;8.452;2022-07-17T07:29:09;101462.69;;;26.65
13497;BMP180;6820;49.374;8.452;2022-07-17T07:33:17;101461.06;;;26.73
13497;BMP180;6820;49.374;8.452;2022-07-17T07:37:19;101464.69;;;26.84
13497;BMP180;6820;49.374;8.452;2022-07-17T07:41:27;101454.47;;;26.97
13497;BMP180;6820;49.374;8.452;2022-07-17T07:45:32;101460.72;;;27.12
13497;BMP180;6820;49.374;8.452;2022-07-17T07:49:35;101460.91;;;27.27
13497;BMP180;6820;49.374;8.452;2022-07-17T07:53:43;101451.53;;;27.41
13497;BMP180;6820;49.374;8.452;2022-07-17T07:57:48;101451.69;;;27.54
13497;BMP180;6820;49.374;8.452;2022-07-17T08:01:58;101457.84;;;27.62
13497;BMP180;6820;49.374;8.452;2022-07-17T08:06:04;101448.34;;;27.71
13497;BMP180;6820;49.374;8.452;2022-07-17T08:10:14;101448.44;;;27.82
13497;BMP180;6820;49.374;8.452;2022-07-17T08:14:19;101454.69;;;27.94
13497;BMP180;6820;49.374;8.452;2022-07-17T08:18:22;101453.03;;;28.09
13497;BMP180;6820;49.374;8.452;2022-07-17T08:22:31;101443.63;;;28.23
13497;BMP180;6820;49.374;8.452;2022-07-17T08:26:58;101456.72;;;28.38
13497;BMP180;6820;49.374;8.452;2022-07-17T08:31:03;101456.81;;;28.49
13497;BMP180;6820;49.374;8.452;2022-07-17T08:35:06;101456.03;;;28.61
13497;BMP180;6820;49.374;8.452;2022-07-17T08:39:11;101459.56;;;28.70
13497;BMP180;6820;49.374;8.452;2022-07-17T08:43:13;101457.88;;;28.79
13497;BMP180;6820;49.374;8.452;2022-07-17T08:47:15;101457.03;;;28.85
13497;BMP180;6820;49.374;8.452;2022-07-17T08:51:22;101453.59;;;28.96
13497;BMP180;6820;49.374;8.452;2022-07-17T08:55:27;101455.44;;;29.12
13497;BMP180;6820;49.374;8.452;2022-07-17T08:59:33;101460.69;;;29.25
13497;BMP180;6820;49.374;8.452;2022-07-17T09:03:39;101458.13;;;29.36
13497;BMP180;6820;49.374;8.452;2022-07-17T09:07:48;101464.22;;;29.41
13497;BMP180;6820;49.374;8.452;2022-07-17T09:11:58;101452.91;;;29.44
13497;BMP180;6820;49.374;8.452;2022-07-17T09:16:11;101447.72;;;29.56
13497;BMP180;6820;49.374;8.452;2022-07-17T09:20:17;101448.63;;;29.70
13497;BMP180;6820;49.374;8.452;2022-07-17T09:24:53;101443.38;;;29.85
13497;BMP180;6820;49.374;8.452;2022-07-17T09:29:03;101427.72;;;29.97
13497;BMP180;6820;49.374;8.452;2022-07-17T09:33:17;101426.84;;;30.02
13497;BMP180;6820;49.374;8.452;2022-07-17T09:37:29;101412.88;;;30.04
13497;BMP180;6820;49.374;8.452;2022-07-17T09:41:31;101408.50;;;30.08
13497;BMP180;6820;49.374;8.452;2022-07-17T09:45:35;101406.78;;;30.13
13497;BMP180;6820;49.374;8.452;2022-07-17T09:49:45;101404.16;;;30.22
13497;BMP180;6820;49.374;8.452;2022-07-17T09:54:05;101409.38;;;30.36
13497;BMP180;6820;49.374;8.452;2022-07-17T09:58:11;101399.72;;;30.52
13497;BMP180;6820;49.374;8.452;2022-07-17T10:02:19;101411.00;;;30.68
13497;BMP180;6820;49.374;8.452;2022-07-17T10:06:24;101403.97;;;30.85
13497;BMP180;6820;49.374;8.452;2022-07-17T10:10:35;101391.72;;;30.93
13497;BMP180;6820;49.374;8.452;2022-07-17T10:14:45;101396.88;;;31.05
13497;BMP180;6820;49.374;8.452;2022-07-17T10:18:54;101393.34;;;31.16
13497;BMP180;6820;49.374;8.452;2022-07-17T10:23:15;101399.44;;;31.24
13497;BMP180;6820;49.374;8.452;2022-07-17T10:27:52;101395.81;;;31.43
13497;BMP180;6820;49.374;8.452;2022-07-17T10:31:57;101400.94;;;31.59
13497;BMP180;6820;49.374;8.452;2022-07-17T10:36:02;101392.97;;;31.66
13497;BMP180;6820;49.374;8.452;2022-07-17T10:40:23;101399.03;;;31.77
13497;BMP180;6820;49.374;8.452;2022-07-17T10:44:27;101391.03;;;31.93
13497;BMP180;6820;49.374;8.452;2022-07-17T10:48:39;101394.44;;;32.01
13497;BMP180;6820;49.374;8.452;2022-07-17T10:53:01;101392.81;;;31.90
13497;BMP180;6820;49.374;8.452;2022-07-17T10:57:04;101383.97;;;31.98
13497;BMP180;6820;49.374;8.452;2022-07-17T11:01:11;101382.91;;;32.20
13497;BMP180;6820;49.374;8.452;2022-07-17T11:05:21;101385.28;;;32.41
13497;BMP180;6820;49.374;8.452;2022-07-17T11:09:27;101389.56;;;32.49
13497;BMP180;6820;49.374;8.452;2022-07-17T11:13:31;101385.06;;;32.61
13497;BMP180;6820;49.374;8.452;2022-07-17T11:17:34;101381.44;;;32.71
13497;BMP180;6820;49.374;8.452;2022-07-17T11:21:48;101374.47;;;32.69
13497;BMP180;6820;49.374;8.452;2022-07-17T11:25:54;101359.56;;;32.69
13497;BMP180;6820;49.374;8.452;2022-07-17T11:30:01;101362.00;;;32.85
13497;BMP180;6820;49.374;8.452;2022-07-17T11:34:06;101370.53;;;33.01
13497;BMP180;6820;49.374;8.452;2022-07-17T11:38:15;101371.41;;;33.03
13497;BMP180;6820;49.374;8.452;2022-07-17T11:42:21;101365.19;;;33.07
13497;BMP180;6820;49.374;8.452;2022-07-17T11:46:30;101369.38;;;33.19
13497;BMP180;6820;49.374;8.452;2022-07-17T11:50:39;101358.66;;;33.36
13497;BMP180;6820;49.374;8.452;2022-07-17T11:54:52;101355.69;;;33.55
13497;BMP180;6820;49.374;8.452;2022-07-17T11:59:11;101359.88;;;33.66
13497;BMP180;6820;49.374;8.452;2022-07-17T12:03:27;101353.59;;;33.77
13497;BMP180;6820;49.374;8.452;2022-07-17T12:07:59;101342.91;;;33.86
13497;BMP180;6820;49.374;8.452;2022-07-17T12:12:35;101336.72;;;33.89
13497;BMP180;6820;49.374;8.452;2022-07-17T12:16:45;101337.31;;;34.03
13497;BMP180;6820;49.374;8.452;2022-07-17T12:20:52;101337.25;;;34.07
13497;BMP180;6820;49.374;8.452;2022-07-17T12:25:09;101342.47;;;34.08
13497;BMP180;6820;49.374;8.452;2022-07-17T12:29:11;101348.41;;;34.21
13497;BMP180;6820;49.374;8.452;2022-07-17T12:33:13;101343.19;;;34.16
13497;BMP180;6820;49.374;8.452;2022-07-17T12:37:50;101340.50;;;34.21
13497;BMP180;6820;49.374;8.452;2022-07-17T12:41:57;101336.84;;;34.28
13497;BMP180;6820;49.374;8.452;2022-07-17T12:46:01;101322.50;;;34.42
13497;BMP180;6820;49.374;8.452;2022-07-17T12:50:16;101321.59;;;34.44
13497;BMP180;6820;49.374;8.452;2022-07-17T12:54:22;101322.31;;;34.51
13497;BMP180;6820;49.374;8.452;2022-07-17T12:58:27;101313.88;;;34.76
13497;BMP180;6820;49.374;8.452;2022-07-17T13:02:40;101298.97;;;35.14
13497;BMP180;6820;49.374;8.452;2022-07-17T13:07:03;101302.56;;;35.44
13497;BMP180;6820;49.374;8.452;2022-07-17T13:11:07;101302.06;;;35.63
13497;BMP180;6820;49.374;8.452;2022-07-17T13:15:12;101293.41;;;35.92
13497;BMP180;6820;49.374;8.452;2022-07-17T13:19:14;101311.69;;;35.99
13497;BMP180;6820;49.374;8.452;2022-07-17T13:23:16;101307.88;;;36.09
13497;BMP180;6820;49.374;8.452;2022-07-17T13:27:18;101297.84;;;36.21
13497;BMP180;6820;49.374;8.452;2022-07-17T13:31:19;101298.97;;;36.43
13497;BMP180;6820;49.374;8.452;2022-07-17T13:35:21;101295.25;;;36.50
13497;BMP180;6820;49.374;8.452;2022-07-17T13:39:24;101283.66;;;36.55
13497;BMP180;6820;49.374;8.452;2022-07-17T13:43:26;101277.75;;;36.74
13497;BMP180;6820;49.374;8.452;2022-07-17T13:47:27;101268.88;;;36.77
13497;BMP180;6820;49.374;8.452;2022-07-17T13:51:30;101274.94;;;37.07
13497;BMP180;6820;49.374;8.452;2022-07-17T13:55:32;101271.91;;;37.45
13497;BMP180;6820;49.374;8.452;2022-07-17T13:59:45;101265.78;;;37.68
13497;BMP180;6820;49.374;8.452;2022-07-17T14:03:46;101265.31;;;37.81
13497;BMP180;6820;49.374;8.452;2022-07-17T14:07:48;101253.53;;;37.90
13497;BMP180;6820;49.374;8.452;2022-07-17T14:11:50;101258.19;;;37.83
13497;BMP180;6820;49.374;8.452;2022-07-17T14:15:52;101255.16;;;37.70
13497;BMP180;6820;49.374;8.452;2022-07-17T14:19:54;101254.84;;;37.77
13497;BMP180;6820;49.374;8.452;2022-07-17T14:23:55;101250.56;;;37.99
13497;BMP180;6820;49.374;8.452;2022-07-17T14:27:57;101249.75;;;37.73
13497;BMP180;6820;49.374;8.452;2022-07-17T14:31:59;101242.31;;;37.83
13497;BMP180;6820;49.374;8.452;2022-07-17T14:36:01;101247.34;;;37.91
13497;BMP180;6820;49.374;8.452;2022-07-17T14:40:03;101244.56;;;37.94
13497;BMP180;6820;49.374;8.452;2022-07-17T14:44:05;101237.72;;;38.11
13497;BMP180;6820;49.374;8.452;2022-07-17T14:48:07;101237.41;;;38.20
13497;BMP180;6820;49.374;8.452;2022-07-17T14:52:09;101239.28;;;38.16
13497;BMP180;6820;49.374;8.452;2022-07-17T14:56:11;101234.66;;;38.21
13497;BMP180;6820;49.374;8.452;2022-07-17T15:00:13;101223.63;;;38.33
13497;BMP180;6820;49.374;8.452;2022-07-17T15:04:16;101221.31;;;38.70
13497;BMP180;6820;49.374;8.452;2022-07-17T15:08:18;101216.50;;;39.00
13497;BMP180;6820;49.374;8.452;2022-07-17T15:12:19;101205.78;;;38.82
13497;BMP180;6820;49.374;8.452;2022-07-17T15:16:21;101200.38;;;38.83
13497;BMP180;6820;49.374;8.452;2022-07-17T15:20:23;101195.75;;;38.88
13497;BMP180;6820;49.374;8.452;2022-07-17T15:24:25;101206.94;;;38.75
13497;BMP180;6820;49.374;8.452;2022-07-17T15:28:27;101187.34;;;38.79
13497;BMP180;6820;49.374;8.452;2022-07-17T15:32:28;101201.50;;;38.78
13497;BMP180;6820;49.374;8.452;2022-07-17T15:36:30;101201.63;;;39.17
13497;BMP180;6820;49.374;8.452;2022-07-17T15:40:32;101188.72;;;39.49
13497;BMP180;6820;49.374;8.452;2022-07-17T15:44:35;101187.66;;;39.53
13497;BMP180;6820;49.374;8.452;2022-07-17T15:48:37;101186.34;;;39.42
13497;BMP180;6820;49.374;8.452;2022-07-17T15:52:39;101181.13;;;39.40
13497;BMP180;6820;49.374;8.452;2022-07-17T15:56:41;101175.59;;;39.45
13497;BMP180;6820;49.374;8.452;2022-07-17T16:00:42;101171.91;;;39.68
13497;BMP180;6820;49.374;8.452;2022-07-17T16:04:45;101172.22;;;39.61
13497;BMP180;6820;49.374;8.452;2022-07-17T16:08:47;101168.72;;;39.80
13497;BMP180;6820;49.374;8.452;2022-07-17T16:12:49;101167.81;;;39.80
13497;BMP180;6820;49.374;8.452;2022-07-17T16:16:50;101162.75;;;39.56
13497;BMP180;6820;49.374;8.452;2022-07-17T16:20:52;101157.84;;;39.67
13497;BMP180;6820;49.374;8.452;2022-07-17T16:24:54;101156.19;;;39.82
13497;BMP180;6820;49.374;8.452;2022-07-17T16:28:59;101149.28;;;39.98
13497;BMP180;6820;49.374;8.452;2022-07-17T16:33:01;101141.31;;;40.16
13497;BMP180;6820;49.374;8.452;2022-07-17T16:37:02;101141.31;;;40.16
13497;BMP180;6820;49.374;8.452;2022-07-17T16:41:04;101141.47;;;40.13
13497;BMP180;6820;49.374;8.452;2022-07-17T16:45:08;101135.44;;;39.92
13497;BMP180;6820;49.374;8.452;2022-07-17T16:49:10;101125.16;;;40.02
13497;BMP180;6820;49.374;8.452;2022-07-17T16:53:13;101128.88;;;40.17
13497;BMP180;6820;49.374;8.452;2022-07-17T16:57:16;101132.50;;;39.98
13497;BMP180;6820;49.374;8.452;2022-07-17T17:01:18;101125.09;;;39.66
13497;BMP180;6820;49.374;8.452;2022-07-17T17:05:20;101120.88;;;39.62
13497;BMP180;6820;49.374;8.452;2022-07-17T17:09:22;101118.38;;;39.59
13497;BMP180;6820;49.374;8.452;2022-07-17T17:13:23;101126.72;;;39.50
13497;BMP180;6820;49.374;8.452;2022-07-17T17:17:25;101122.75;;;39.21
13497;BMP180;6820;49.374;8.452;2022-07-17T17:21:27;101120.63;;;38.89
13497;BMP180;6820;49.374;8.452;2022-07-17T17:25:29;101118.16;;;38.64
13497;BMP180;6820;49.374;8.452;2022-07-17T17:29:30;101117.97;;;38.26
13497;BMP180;6820;49.374;8.452;2022-07-17T17:33:32;101113.16;;;37.91
13497;BMP180;6820;49.374;8.452;2022-07-17T17:37:34;101118.22;;;37.50
13497;BMP180;6820;49.374;8.452;2022-07-17T17:41:35;101111.97;;;37.05
13497;BMP180;6820;49.374;8.452;2022-07-17T17:45:38;101118.63;;;36.65
13497;BMP180;6820;49.374;8.452;2022-07-17T17:49:40;101118.97;;;36.27
13497;BMP180;6820;49.374;8.452;2022-07-17T17:53:42;101112.78;;;36.00
13497;BMP180;6820;49.374;8.452;2022-07-17T17:57:44;101119.56;;;35.80
13497;BMP180;6820;49.374;8.452;2022-07-17T18:01:48;101125.38;;;35.62
13497;BMP180;6820;49.374;8.452;2022-07-17T18:05:50;101124.91;;;35.47
13497;BMP180;6820;49.374;8.452;2022-07-17T18:09:51;101125.34;;;35.32
13497;BMP180;6820;49.374;8.452;2022-07-17T18:13:53;101131.97;;;35.15
13497;BMP180;6820;49.374;8.452;2022-07-17T18:17:55;101134.06;;;35.01
13497;BMP180;6820;49.374;8.452;2022-07-17T18:21:57;101132.56;;;34.91
13497;BMP180;6820;49.374;8.452;2022-07-17T18:25:59;101140.81;;;34.78
13497;BMP180;6820;49.374;8.452;2022-07-17T18:30:01;101138.56;;;34.63
13497;BMP180;6820;49.374;8.452;2022-07-17T18:34:02;101141.31;;;34.57
13497;BMP180;6820;49.374;8.452;2022-07-17T18:38:04;101152.00;;;34.51
13497;BMP180;6820;49.374;8.452;2022-07-17T18:42:06;101158.50;;;34.37
13497;BMP180;6820;49.374;8.452;2022-07-17T18:46:08;101152.63;;;34.26
13497;BMP180;6820;49.374;8.452;2022-07-17T18:50:10;101149.47;;;34.09
13497;BMP180;6820;49.374;8.452;2022-07-17T18:54:12;101155.81;;;34.00
13497;BMP180;6820;49.374;8.452;2022-07-17T18:58:14;101149.78;;;33.95
13497;BMP180;6820;49.374;8.452;2022-07-17T19:02:16;101156.91;;;33.90
13497;BMP180;6820;49.374;8.452;2022-07-17T19:06:20;101162.44;;;33.78
13497;BMP180;6820;49.374;8.452;2022-07-17T19:10:22;101164.47;;;33.63
13497;BMP180;6820;49.374;8.452;2022-07-17T19:14:25;101160.19;;;33.57
13497;BMP180;6820;49.374;8.452;2022-07-17T19:18:27;101160.31;;;33.51
13497;BMP180;6820;49.374;8.452;2022-07-17T19:22:29;101153.50;;;33.42
13497;BMP180;6820;49.374;8.452;2022-07-17T19:26:31;101172.16;;;33.28
13497;BMP180;6820;49.374;8.452;2022-07-17T19:30:33;101184.72;;;33.10
13497;BMP180;6820;49.374;8.452;2022-07-17T19:34:35;101180.59;;;32.96
13497;BMP180;6820;49.374;8.452;2022-07-17T19:38:37;101181.72;;;32.80
13497;BMP180;6820;49.374;8.452;2022-07-17T19:42:39;101195.16;;;32.61
13497;BMP180;6820;49.374;8.452;2022-07-17T19:46:40;101195.31;;;32.51
13497;BMP180;6820;49.374;8.452;2022-07-17T19:50:42;101199.84;;;32.40
13497;BMP180;6820;49.374;8.452;2022-07-17T19:54:44;101207.91;;;32.23
13497;BMP180;6820;49.374;8.452;2022-07-17T19:58:48;101201.94;;;32.13
13497;BMP180;6820;49.374;8.452;2022-07-17T20:02:50;101201.09;;;32.12
13497;BMP180;6820;49.374;8.452;2022-07-17T20:06:52;101201.09;;;32.09
13497;BMP180;6820;49.374;8.452;2022-07-17T20:10:54;101194.16;;;32.07
13497;BMP180;6820;49.374;8.452;2022-07-17T20:14:56;101184.56;;;32.04
13497;BMP180;6820;49.374;8.452;2022-07-17T20:18:57;101183.84;;;31.92
13497;BMP180;6820;49.374;8.452;2022-07-17T20:22:59;101199.69;;;31.83
13497;BMP180;6820;49.374;8.452;2022-07-17T20:27:01;101205.84;;;31.79
13497;BMP180;6820;49.374;8.452;2022-07-17T20:31:02;101221.59;;;31.79
13497;BMP180;6820;49.374;8.452;2022-07-17T20:35:05;101212.91;;;31.73
13497;BMP180;6820;49.374;8.452;2022-07-17T20:39:07;101220.88;;;31.62
13497;BMP180;6820;49.374;8.452;2022-07-17T20:43:09;101224.53;;;31.47
13497;BMP180;6820;49.374;8.452;2022-07-17T20:47:10;101222.03;;;31.32
13497;BMP180;6820;49.374;8.452;2022-07-17T20:51:12;101230.84;;;31.28
13497;BMP180;6820;49.374;8.452;2022-07-17T20:55:14;101229.13;;;31.24
13497;BMP180;6820;49.374;8.452;2022-07-17T20:59:16;101230.91;;;31.22
13497;BMP180;6820;49.374;8.452;2022-07-17T21:03:17;101220.44;;;31.16
13497;BMP180;6820;49.374;8.452;2022-07-17T21:07:19;101226.53;;;31.15
13497;BMP180;6820;49.374;8.452;2022-07-17T21:11:21;101232.69;;;31.13
13497;BMP180;6820;49.374;8.452;2022-07-17T21:15:23;101233.59;;;31.09
13497;BMP180;6820;49.374;8.452;2022-07-17T21:19:25;101228.38;;;31.06
13497;BMP180;6820;49.374;8.452;2022-07-17T21:23:27;101231.91;;;31.02
13497;BMP180;6820;49.374;8.452;2022-07-17T21:27:28;101233.72;;;30.94
13497;BMP180;6820;49.374;8.452;2022-07-17T21:31:30;101225.06;;;30.85
13497;BMP180;6820;49.374;8.452;2022-07-17T21:35:32;101233.88;;;30.72
13497;BMP180;6820;49.374;8.452;2022-07-17T21:39:33;101230.38;;;30.67
13497;BMP180;6820;49.374;8.452;2022-07-17T21:43:35;101240.94;;;30.58
13497;BMP180;6820;49.374;8.452;2022-07-17T21:47:37;101240.97;;;30.51
13497;BMP180;6820;49.374;8.452;2022-07-17T21:51:39;101241.88;;;30.47
13497;BMP180;6820;49.374;8.452;2022-07-17T21:55:40;101248.00;;;30.41
13497;BMP180;6820;49.374;8.452;2022-07-17T21:59:42;101258.47;;;30.35
13497;BMP180;6820;49.374;8.452;2022-07-17T22:03:44;101255.91;;;30.30
13497;BMP180;6820;49.374;8.452;2022-07-17T22:07:46;101253.31;;;30.22
13497;BMP180;6820;49.374;8.452;2022-07-17T22:11:48;101265.53;;;30.19
13497;BMP180;6820;49.374;8.452;2022-07-17T22:15:50;101259.44;;;30.11
13497;BMP180;6820;49.374;8.452;2022-07-17T22:19:52;101263.84;;;30.00
13497;BMP180;6820;49.374;8.452;2022-07-17T22:23:54;101259.53;;;29.89
13497;BMP180;6820;49.374;8.452;2022-07-17T22:27:56;101257.81;;;29.77
13497;BMP180;6820;49.374;8.452;2022-07-17T22:31:58;101252.56;;;29.61
13497;BMP180;6820;49.374;8.452;2022-07-17T22:36:00;101245.63;;;29.57
13497;BMP180;6820;49.374;8.452;2022-07-17T22:40:02;101241.28;;;29.56
13497;BMP180;6820;49.374;8.452;2022-07-17T22:44:04;101233.44;;;29.56
13497;BMP180;6820;49.374;8.452;2022-07-17T22:48:06;101237.78;;;29.53
13497;BMP180;6820;49.374;8.452;2022-07-17T22:52:08;101248.25;;;29.48
13497;BMP180;6820;49.374;8.452;2022-07-17T22:56:09;101248.25;;;29.42
13497;BMP180;6820;49.374;8.452;2022-07-17T23:00:11;101249.13;;;29.34
13497;BMP180;6820;49.374;8.452;2022-07-17T23:04:13;101239.56;;;29.26
13497;BMP180;6820;49.374;8.452;2022-07-17T23:08:15;101239.56;;;29.20
13497;BMP180;6820;49.374;8.452;2022-07-17T23:12:17;101239.56;;;29.17
13497;BMP180;6820;49.374;8.452;2022-07-17T23:16:19;101237.81;;;29.13
13497;BMP180;6820;49.374;8.452;2022-07-17T23:20:22;101250.84;;;29.04
13497;BMP180;6820;49.374;8.452;2022-07-17T23:24:24;101243.88;;;28.94